sensor_id;sensor_type;location;lat;lon;timestamp;pressure;altitude;pressure_sealevel;temperature;humidity
44751;BME280;30477;48.224;11.470;2023-04-03T00:02:01;96604.09;;;2.30;74.28
44751;BME280;30477;48.224;11.470;2023-04-03T00:04:26;96605.69;;;2.33;74.27
44751;BME280;30477;48.224;11.470;2023-04-03T00:06:52;96614.25;;;2.32;74.39
44751;BME280;30477;48.224;11.470;2023-04-03T00:09:17;96614.19;;;2.33;74.27
44751;BME280;30477;48.224;11.470;2023-04-03T00:11:42;96621.41;;;2.25;74.11
44751;BME280;30477;48.224;11.470;2023-04-03T00:14:08;96618.63;;;2.30;74.33
44751;BME280;30477;48.224;11.470;2023-04-03T00:16:33;96606.81;;;2.27;74.57
44751;BME280;30477;48.224;11.470;2023-04-03T00:18:58;96610.66;;;2.36;74.78
44751;BME280;30477;48.224;11.470;2023-04-03T00:21:24;96610.66;;;2.36;74.48
44751;BME280;30477;48.224;11.470;2023-04-03T00:23:49;96622.75;;;2.32;74.28
44751;BME280;30477;48.224;11.470;2023-04-03T00:26:15;96616.44;;;2.22;74.28
44751;BME280;30477;48.224;11.470;2023-04-03T00:28:40;96614.69;;;2.22;74.35
44751;BME280;30477;48.224;11.470;2023-04-03T00:31:06;96613.00;;;2.23;74.69
44751;BME280;30477;48.224;11.470;2023-04-03T00:33:31;96613.22;;;2.18;74.44
44751;BME280;30477;48.224;11.470;2023-04-03T00:35:56;96616.66;;;2.17;74.69
44751;BME280;30477;48.224;11.470;2023-04-03T00:38:22;96616.88;;;2.30;75.04
44751;BME280;30477;48.224;11.470;2023-04-03T00:40:48;96614.63;;;2.24;74.59
44751;BME280;30477;48.224;11.470;2023-04-03T00:43:24;96611.91;;;2.10;74.35
44751;BME280;30477;48.224;11.470;2023-04-03T00:45:52;96610.28;;;2.09;74.92
44751;BME280;30477;48.224;11.470;2023-04-03T00:48:22;96612.31;;;2.19;75.18
44751;BME280;30477;48.224;11.470;2023-04-03T00:50:50;96611.38;;;2.20;75.01
44751;BME280;30477;48.224;11.470;2023-04-03T00:53:21;96609.28;;;2.11;75.05
44751;BME280;30477;48.224;11.470;2023-04-03T00:55:48;96613.50;;;2.12;75.14
44751;BME280;30477;48.224;11.470;2023-04-03T00:58:16;96611.47;;;2.19;75.31
44751;BME280;30477;48.224;11.470;2023-04-03T01:00:47;96608.84;;;2.20;75.08
44751;BME280;30477;48.224;11.470;2023-04-03T01:03:13;96608.00;;;2.20;75.01
44751;BME280;30477;48.224;11.470;2023-04-03T01:05:39;96607.94;;;2.21;75.15
44751;BME280;30477;48.224;11.470;2023-04-03T01:08:05;96612.22;;;2.21;75.30
44751;BME280;30477;48.224;11.470;2023-04-03T01:10:31;96615.91;;;2.15;75.07
44751;BME280;30477;48.224;11.470;2023-04-03T01:12:56;96611.78;;;2.13;75.35
44751;BME280;30477;48.224;11.470;2023-04-03T01:15:25;96612.66;;;2.12;75.42
44751;BME280;30477;48.224;11.470;2023-04-03T01:17:54;96613.50;;;2.12;75.51
44751;BME280;30477;48.224;11.470;2023-04-03T01:25:37;96616.59;;;2.19;75.65
44751;BME280;30477;48.224;11.470;2023-04-03T01:28:04;96619.38;;;2.14;75.52
44751;BME280;30477;48.224;11.470;2023-04-03T01:30:33;96623.50;;;2.17;75.72
44751;BME280;30477;48.224;11.470;2023-04-03T01:33:00;96617.47;;;2.18;75.66
44751;BME280;30477;48.224;11.470;2023-04-03T01:35:26;96614.34;;;2.13;75.76
44751;BME280;30477;48.224;11.470;2023-04-03T01:37:51;96611.03;;;2.11;75.68
44751;BME280;30477;48.224;11.470;2023-04-03T01:40:16;96621.31;;;2.09;75.55
44751;BME280;30477;48.224;11.470;2023-04-03T01:42:42;96616.19;;;2.09;75.44
44751;BME280;30477;48.224;11.470;2023-04-03T01:45:07;96615.69;;;2.02;75.53
44751;BME280;30477;48.224;11.470;2023-04-03T01:47:33;96613.19;;;2.01;75.72
44751;BME280;30477;48.224;11.470;2023-04-03T01:49:58;96617.31;;;2.03;75.76
44751;BME280;30477;48.224;11.470;2023-04-03T01:52:23;96610.41;;;2.06;75.56
44751;BME280;30477;48.224;11.470;2023-04-03T01:54:49;96611.09;;;2.09;75.69
44751;BME280;30477;48.224;11.470;2023-04-03T01:57:15;96604.81;;;2.16;75.55
44751;BME280;30477;48.224;11.470;2023-04-03T01:59:41;96618.91;;;2.23;75.53
44751;BME280;30477;48.224;11.470;2023-04-03T02:02:06;96617.94;;;2.26;75.61
44751;BME280;30477;48.224;11.470;2023-04-03T02:04:32;96614.41;;;2.29;75.54
44751;BME280;30477;48.224;11.470;2023-04-03T02:06:57;96611.19;;;2.25;75.27
44751;BME280;30477;48.224;11.470;2023-04-03T02:09:22;96611.19;;;2.25;75.09
44751;BME280;30477;48.224;11.470;2023-04-03T02:11:48;96614.31;;;2.30;75.25
44751;BME280;30477;48.224;11.470;2023-04-03T02:14:13;96609.50;;;2.41;75.14
44751;BME280;30477;48.224;11.470;2023-04-03T02:16:38;96607.13;;;2.38;74.86
44751;BME280;30477;48.224;11.470;2023-04-03T02:19:04;96606.44;;;2.35;74.96
44751;BME280;30477;48.224;11.470;2023-04-03T02:21:29;96607.59;;;2.29;74.83
44751;BME280;30477;48.224;11.470;2023-04-03T02:23:55;96607.19;;;2.37;74.85
44751;BME280;30477;48.224;11.470;2023-04-03T02:26:20;96604.50;;;2.40;74.57
44751;BME280;30477;48.224;11.470;2023-04-03T02:28:46;96603.34;;;2.46;74.72
44751;BME280;30477;48.224;11.470;2023-04-03T02:31:11;96597.09;;;2.51;74.52
44751;BME280;30477;48.224;11.470;2023-04-03T02:33:37;96599.38;;;2.40;74.16
44751;BME280;30477;48.224;11.470;2023-04-03T02:36:06;96608.09;;;2.36;74.23
44751;BME280;30477;48.224;11.470;2023-04-03T02:38:32;96599.16;;;2.44;74.42
44751;BME280;30477;48.224;11.470;2023-04-03T02:41:06;96600.88;;;2.44;73.99
44751;BME280;30477;48.224;11.470;2023-04-03T02:43:33;96604.84;;;2.50;74.07
44751;BME280;30477;48.224;11.470;2023-04-03T02:45:58;96602.53;;;2.45;74.03
44751;BME280;30477;48.224;11.470;2023-04-03T02:48:24;96599.28;;;2.41;74.03
44751;BME280;30477;48.224;11.470;2023-04-03T02:50:50;96605.31;;;2.40;73.95
44751;BME280;30477;48.224;11.470;2023-04-03T02:53:16;96600.56;;;2.33;73.80
44751;BME280;30477;48.224;11.470;2023-04-03T02:55:41;96603.81;;;2.36;73.94
44751;BME280;30477;48.224;11.470;2023-04-03T02:58:07;96610.59;;;2.37;73.91
44751;BME280;30477;48.224;11.470;2023-04-03T03:00:33;96606.13;;;2.41;74.07
44751;BME280;30477;48.224;11.470;2023-04-03T03:02:58;96607.63;;;2.45;74.02
44751;BME280;30477;48.224;11.470;2023-04-03T03:05:25;96610.78;;;2.50;73.68
44751;BME280;30477;48.224;11.470;2023-04-03T03:07:50;96606.44;;;2.52;73.89
44751;BME280;30477;48.224;11.470;2023-04-03T03:10:16;96608.13;;;2.52;73.37
44751;BME280;30477;48.224;11.470;2023-04-03T03:12:41;96614.00;;;2.54;73.30
44751;BME280;30477;48.224;11.470;2023-04-03T03:15:07;96604.84;;;2.50;73.22
44751;BME280;30477;48.224;11.470;2023-04-03T03:17:32;96610.78;;;2.50;73.26
44751;BME280;30477;48.224;11.470;2023-04-03T03:19:58;96601.22;;;2.54;73.21
44751;BME280;30477;48.224;11.470;2023-04-03T03:22:24;96608.13;;;2.52;73.08
44751;BME280;30477;48.224;11.470;2023-04-03T03:24:50;96609.94;;;2.50;73.02
44751;BME280;30477;48.224;11.470;2023-04-03T03:27:15;96605.59;;;2.52;72.93
44751;BME280;30477;48.224;11.470;2023-04-03T03:29:41;96605.13;;;2.43;72.90
44751;BME280;30477;48.224;11.470;2023-04-03T03:32:07;96608.44;;;2.46;72.85
44751;BME280;30477;48.224;11.470;2023-04-03T03:34:32;96606.81;;;2.44;72.75
44751;BME280;30477;48.224;11.470;2023-04-03T03:36:57;96606.00;;;2.44;72.64
44751;BME280;30477;48.224;11.470;2023-04-03T03:39:23;96613.56;;;2.46;72.62
44751;BME280;30477;48.224;11.470;2023-04-03T03:41:48;96611.00;;;2.46;72.32
44751;BME280;30477;48.224;11.470;2023-04-03T03:44:14;96611.34;;;2.39;72.43
44751;BME280;30477;48.224;11.470;2023-04-03T03:46:40;96611.63;;;2.33;72.22
44751;BME280;30477;48.224;11.470;2023-04-03T03:49:05;96617.94;;;2.26;72.39
44751;BME280;30477;48.224;11.470;2023-04-03T03:51:30;96619.44;;;2.30;72.31
44751;BME280;30477;48.224;11.470;2023-04-03T03:53:56;96611.63;;;2.33;72.52
44751;BME280;30477;48.224;11.470;2023-04-03T03:56:21;96607.28;;;2.35;72.55
44751;BME280;30477;48.224;11.470;2023-04-03T03:58:47;96613.97;;;2.38;72.47
44751;BME280;30477;48.224;11.470;2023-04-03T04:01:13;96606.53;;;2.33;72.37
44751;BME280;30477;48.224;11.470;2023-04-03T04:03:38;96612.06;;;2.41;72.27
44751;BME280;30477;48.224;11.470;2023-04-03T04:06:03;96607.78;;;2.42;72.41
44751;BME280;30477;48.224;11.470;2023-04-03T04:08:29;96603.66;;;2.39;72.31
44751;BME280;30477;48.224;11.470;2023-04-03T04:10:54;96604.31;;;2.43;72.39
44751;BME280;30477;48.224;11.470;2023-04-03T04:13:20;96605.47;;;2.37;72.22
44751;BME280;30477;48.224;11.470;2023-04-03T04:15:46;96607.13;;;2.38;72.17
44751;BME280;30477;48.224;11.470;2023-04-03T04:18:11;96610.59;;;2.37;72.21
44751;BME280;30477;48.224;11.470;2023-04-03T04:20:36;96619.31;;;2.33;72.13
44751;BME280;30477;48.224;11.470;2023-04-03T04:23:02;96614.03;;;2.36;72.05
44751;BME280;30477;48.224;11.470;2023-04-03T04:25:27;96616.81;;;2.32;71.98
44751;BME280;30477;48.224;11.470;2023-04-03T04:27:53;96615.16;;;2.31;72.24
44751;BME280;30477;48.224;11.470;2023-04-03T04:30:18;96621.09;;;2.31;72.00
44751;BME280;30477;48.224;11.470;2023-04-03T04:32:43;96614.94;;;2.35;72.04
44751;BME280;30477;48.224;11.470;2023-04-03T04:35:09;96624.47;;;2.32;72.00
44751;BME280;30477;48.224;11.470;2023-04-03T04:37:34;96616.13;;;2.28;72.27
44751;BME280;30477;48.224;11.470;2023-04-03T04:40:00;96620.13;;;2.34;72.10
44751;BME280;30477;48.224;11.470;2023-04-03T04:42:25;96623.97;;;2.25;72.08
44751;BME280;30477;48.224;11.470;2023-04-03T04:44:50;96618.56;;;2.31;72.45
44751;BME280;30477;48.224;11.470;2023-04-03T04:47:16;96625.47;;;2.29;72.25
44751;BME280;30477;48.224;11.470;2023-04-03T04:49:41;96630.69;;;2.26;72.16
44751;BME280;30477;48.224;11.470;2023-04-03T04:52:07;96625.38;;;2.31;72.18
44751;BME280;30477;48.224;11.470;2023-04-03T04:54:32;96621.25;;;2.28;72.40
44751;BME280;30477;48.224;11.470;2023-04-03T04:56:58;96624.72;;;2.27;72.20
44751;BME280;30477;48.224;11.470;2023-04-03T04:59:23;96627.56;;;2.21;72.17
44751;BME280;30477;48.224;11.470;2023-04-03T05:01:49;96626.00;;;2.18;72.27
44751;BME280;30477;48.224;11.470;2023-04-03T05:04:14;96620.31;;;2.12;72.27
44751;BME280;30477;48.224;11.470;2023-04-03T05:06:40;96620.19;;;2.15;72.62
44751;BME280;30477;48.224;11.470;2023-04-03T05:09:05;96626.13;;;2.15;72.61
44751;BME280;30477;48.224;11.470;2023-04-03T05:11:31;96627.16;;;2.11;72.18
44751;BME280;30477;48.224;11.470;2023-04-03T05:13:56;96630.25;;;2.18;72.33
44751;BME280;30477;48.224;11.470;2023-04-03T05:16:22;96631.16;;;2.17;72.24
44751;BME280;30477;48.224;11.470;2023-04-03T05:18:47;96636.19;;;2.18;72.33
44751;BME280;30477;48.224;11.470;2023-04-03T05:21:12;96642.78;;;2.22;72.42
44751;BME280;30477;48.224;11.470;2023-04-03T05:23:38;96640.03;;;2.27;72.30
44751;BME280;30477;48.224;11.470;2023-04-03T05:26:03;96642.78;;;2.22;72.29
44751;BME280;30477;48.224;11.470;2023-04-03T05:28:29;96637.53;;;2.26;72.15
44751;BME280;30477;48.224;11.470;2023-04-03T05:30:56;96638.38;;;2.26;72.12
44751;BME280;30477;48.224;11.470;2023-04-03T05:33:22;96631.97;;;2.17;71.89
44751;BME280;30477;48.224;11.470;2023-04-03T05:35:48;96638.66;;;2.20;72.39
44751;BME280;30477;48.224;11.470;2023-04-03T05:38:13;96640.03;;;2.27;72.17
44751;BME280;30477;48.224;11.470;2023-04-03T05:40:38;96647.06;;;2.22;72.03
44751;BME280;30477;48.224;11.470;2023-04-03T05:43:04;96644.28;;;2.27;72.06
44751;BME280;30477;48.224;11.470;2023-04-03T05:45:30;96648.44;;;2.29;72.01
44751;BME280;30477;48.224;11.470;2023-04-03T05:47:55;96644.44;;;2.23;71.80
44751;BME280;30477;48.224;11.470;2023-04-03T05:50:21;96646.09;;;2.24;71.90
44751;BME280;30477;48.224;11.470;2023-04-03T05:52:48;96645.28;;;2.24;71.75
44751;BME280;30477;48.224;11.470;2023-04-03T05:55:14;96646.31;;;2.20;71.61
44751;BME280;30477;48.224;11.470;2023-04-03T05:57:40;96649.56;;;2.23;71.72
44751;BME280;30477;48.224;11.470;2023-04-03T06:00:07;96651.38;;;2.21;71.66
44751;BME280;30477;48.224;11.470;2023-04-03T06:02:35;96651.88;;;2.28;71.63
44751;BME280;30477;48.224;11.470;2023-04-03T06:05:01;96650.38;;;2.24;71.47
44751;BME280;30477;48.224;11.470;2023-04-03T06:07:26;96657.00;;;2.28;71.41
44751;BME280;30477;48.224;11.470;2023-04-03T06:09:54;96653.69;;;2.26;71.47
44751;BME280;30477;48.224;11.470;2023-04-03T06:12:21;96652.28;;;2.38;71.60
44751;BME280;30477;48.224;11.470;2023-04-03T06:14:47;96659.88;;;2.39;71.14
44751;BME280;30477;48.224;11.470;2023-04-03T06:17:13;96654.53;;;2.44;71.31
44751;BME280;30477;48.224;11.470;2023-04-03T06:19:39;96658.78;;;2.43;71.17
44751;BME280;30477;48.224;11.470;2023-04-03T06:22:05;96652.03;;;2.42;71.11
44751;BME280;30477;48.224;11.470;2023-04-03T06:24:30;96662.84;;;2.48;71.23
44751;BME280;30477;48.224;11.470;2023-04-03T06:26:56;96665.19;;;2.52;71.38
44751;BME280;30477;48.224;11.470;2023-04-03T06:29:22;96664.22;;;2.55;71.22
44751;BME280;30477;48.224;11.470;2023-04-03T06:31:49;96665.03;;;2.55;71.25
44751;BME280;30477;48.224;11.470;2023-04-03T06:34:14;96666.78;;;2.55;71.05
44751;BME280;30477;48.224;11.470;2023-04-03T06:36:41;96666.59;;;2.58;70.82
44751;BME280;30477;48.224;11.470;2023-04-03T06:39:09;96670.66;;;2.62;70.93
44751;BME280;30477;48.224;11.470;2023-04-03T06:41:37;96667.50;;;2.74;71.06
44751;BME280;30477;48.224;11.470;2023-04-03T06:44:03;96665.63;;;2.78;70.79
44751;BME280;30477;48.224;11.470;2023-04-03T06:46:28;96662.13;;;2.63;70.45
44751;BME280;30477;48.224;11.470;2023-04-03T06:48:54;96663.00;;;2.62;70.60
44751;BME280;30477;48.224;11.470;2023-04-03T06:51:20;96662.69;;;2.68;70.64
44751;BME280;30477;48.224;11.470;2023-04-03T06:53:50;96670.38;;;2.68;70.75
44751;BME280;30477;48.224;11.470;2023-04-03T06:56:17;96671.13;;;2.70;70.59
44751;BME280;30477;48.224;11.470;2023-04-03T06:58:44;96673.53;;;2.73;70.72
44751;BME280;30477;48.224;11.470;2023-04-03T07:01:11;96674.88;;;2.80;70.71
44751;BME280;30477;48.224;11.470;2023-04-03T07:03:37;96672.25;;;2.82;70.64
44751;BME280;30477;48.224;11.470;2023-04-03T07:06:04;96665.97;;;2.88;70.51
44751;BME280;30477;48.224;11.470;2023-04-03T07:08:31;96673.75;;;2.86;70.38
44751;BME280;30477;48.224;11.470;2023-04-03T07:10:56;96673.38;;;2.76;70.22
44751;BME280;30477;48.224;11.470;2023-04-03T07:13:22;96678.16;;;2.82;70.41
44751;BME280;30477;48.224;11.470;2023-04-03T07:15:47;96680.34;;;2.90;70.22
44751;BME280;30477;48.224;11.470;2023-04-03T07:18:13;96684.31;;;2.96;70.23
44751;BME280;30477;48.224;11.470;2023-04-03T07:20:39;96690.16;;;2.98;70.07
44751;BME280;30477;48.224;11.470;2023-04-03T07:23:04;96686.72;;;2.99;69.99
44751;BME280;30477;48.224;11.470;2023-04-03T07:25:30;96693.88;;;2.92;69.68
44751;BME280;30477;48.224;11.470;2023-04-03T07:27:56;96690.41;;;2.93;69.72
44751;BME280;30477;48.224;11.470;2023-04-03T07:30:22;96697.03;;;2.97;69.94
44751;BME280;30477;48.224;11.470;2023-04-03T07:32:47;96694.91;;;3.05;69.71
44751;BME280;30477;48.224;11.470;2023-04-03T07:35:12;96699.28;;;3.03;68.84
44751;BME280;30477;48.224;11.470;2023-04-03T07:37:38;96696.66;;;2.88;69.07
44751;BME280;30477;48.224;11.470;2023-04-03T07:40:07;96700.88;;;2.89;69.29
44751;BME280;30477;48.224;11.470;2023-04-03T07:42:33;96708.25;;;2.95;69.25
44751;BME280;30477;48.224;11.470;2023-04-03T07:45:08;96711.03;;;2.90;68.90
44751;BME280;30477;48.224;11.470;2023-04-03T07:47:33;96709.59;;;2.84;68.80
44751;BME280;30477;48.224;11.470;2023-04-03T07:50:02;96715.00;;;2.96;68.89
44751;BME280;30477;48.224;11.470;2023-04-03T07:52:30;96711.53;;;2.97;68.76
44751;BME280;30477;48.224;11.470;2023-04-03T07:54:55;96708.63;;;3.04;69.02
44751;BME280;30477;48.224;11.470;2023-04-03T07:57:21;96715.38;;;3.05;68.58
44751;BME280;30477;48.224;11.470;2023-04-03T07:59:46;96710.56;;;2.99;68.44
44751;BME280;30477;48.224;11.470;2023-04-03T08:02:12;96723.97;;;3.04;68.45
44751;BME280;30477;48.224;11.470;2023-04-03T08:04:37;96715.88;;;3.12;68.39
44751;BME280;30477;48.224;11.470;2023-04-03T08:07:03;96726.41;;;3.06;67.89
44751;BME280;30477;48.224;11.470;2023-04-03T08:09:30;96722.97;;;3.07;67.97
44751;BME280;30477;48.224;11.470;2023-04-03T08:11:56;96717.69;;;3.10;67.79
44751;BME280;30477;48.224;11.470;2023-04-03T08:14:22;96723.56;;;3.12;68.22
44751;BME280;30477;48.224;11.470;2023-04-03T08:16:47;96721.97;;;3.10;68.17
44751;BME280;30477;48.224;11.470;2023-04-03T08:19:14;96724.47;;;3.11;68.31
44751;BME280;30477;48.224;11.470;2023-04-03T08:21:42;96722.66;;;3.13;67.98
44751;BME280;30477;48.224;11.470;2023-04-03T08:24:08;96724.00;;;3.20;68.24
44751;BME280;30477;48.224;11.470;2023-04-03T08:26:34;96723.09;;;3.21;68.09
44751;BME280;30477;48.224;11.470;2023-04-03T08:29:00;96720.22;;;3.28;68.29
44751;BME280;30477;48.224;11.470;2023-04-03T08:31:25;96728.97;;;3.23;68.09
44751;BME280;30477;48.224;11.470;2023-04-03T08:33:51;96735.66;;;3.26;67.98
44751;BME280;30477;48.224;11.470;2023-04-03T08:36:22;96728.88;;;3.25;68.01
44751;BME280;30477;48.224;11.470;2023-04-03T08:38:49;96722.03;;;3.25;67.79
44751;BME280;30477;48.224;11.470;2023-04-03T08:41:37;96719.47;;;3.25;67.46
44751;BME280;30477;48.224;11.470;2023-04-03T08:44:13;96726.97;;;3.29;67.50
44751;BME280;30477;48.224;11.470;2023-04-03T08:49:45;96728.63;;;3.30;67.61
44751;BME280;30477;48.224;11.470;2023-04-03T08:52:18;96726.78;;;3.49;67.79
44751;BME280;30477;48.224;11.470;2023-04-03T08:54:58;96730.84;;;3.53;67.60
44751;BME280;30477;48.224;11.470;2023-04-03T08:57:43;96733.09;;;3.59;67.61
44751;BME280;30477;48.224;11.470;2023-04-03T09:00:24;96734.72;;;3.60;67.35
44751;BME280;30477;48.224;11.470;2023-04-03T09:02:52;96737.66;;;3.53;67.29
44751;BME280;30477;48.224;11.470;2023-04-03T09:08:46;96734.97;;;3.56;67.06
44751;BME280;30477;48.224;11.470;2023-04-03T09:11:41;96736.38;;;3.61;67.09
44751;BME280;30477;48.224;11.470;2023-04-03T09:14:25;96739.16;;;3.57;66.51
44751;BME280;30477;48.224;11.470;2023-04-03T09:16:58;96737.78;;;3.51;66.57
44751;BME280;30477;48.224;11.470;2023-04-03T09:22:18;96735.97;;;3.36;65.92
44751;BME280;30477;48.224;11.470;2023-04-03T09:25:10;96734.03;;;3.41;65.67
44751;BME280;30477;48.224;11.470;2023-04-03T09:27:37;96731.94;;;3.32;65.29
44751;BME280;30477;48.224;11.470;2023-04-03T09:30:03;96735.97;;;3.36;65.11
44751;BME280;30477;48.224;11.470;2023-04-03T09:32:34;96735.09;;;3.37;64.72
44751;BME280;30477;48.224;11.470;2023-04-03T09:35:15;96728.00;;;3.42;64.88
44751;BME280;30477;48.224;11.470;2023-04-03T09:37:44;96731.97;;;3.48;65.24
44751;BME280;30477;48.224;11.470;2023-04-03T09:42:57;96733.47;;;3.52;65.29
44751;BME280;30477;48.224;11.470;2023-04-03T09:45:26;96732.66;;;3.51;65.41
44751;BME280;30477;48.224;11.470;2023-04-03T09:48:31;96720.28;;;3.59;65.43
44751;BME280;30477;48.224;11.470;2023-04-03T09:50:58;96728.53;;;3.64;65.28
44751;BME280;30477;48.224;11.470;2023-04-03T09:56:02;96727.88;;;3.77;65.31
44751;BME280;30477;48.224;11.470;2023-04-03T09:58:39;96729.69;;;3.75;64.86
44751;BME280;30477;48.224;11.470;2023-04-03T10:01:26;96734.16;;;3.71;64.83
44751;BME280;30477;48.224;11.470;2023-04-03T10:04:16;96734.91;;;3.57;64.24
44751;BME280;30477;48.224;11.470;2023-04-03T10:06:47;96731.66;;;3.54;64.18
44751;BME280;30477;48.224;11.470;2023-04-03T10:09:27;96725.28;;;3.45;64.12
44751;BME280;30477;48.224;11.470;2023-04-03T10:12:09;96732.59;;;3.35;64.33
44751;BME280;30477;48.224;11.470;2023-04-03T10:14:58;96725.19;;;3.31;64.93
44751;BME280;30477;48.224;11.470;2023-04-03T10:17:53;96733.84;;;3.28;64.75
44751;BME280;30477;48.224;11.470;2023-04-03T10:20:33;96733.47;;;3.18;65.06
44751;BME280;30477;48.224;11.470;2023-04-03T10:23:17;96734.38;;;3.17;65.32
44751;BME280;30477;48.224;11.470;2023-04-03T10:26:17;96732.16;;;3.27;65.68
44751;BME280;30477;48.224;11.470;2023-04-03T10:31:44;96728.25;;;3.37;65.83
44751;BME280;30477;48.224;11.470;2023-04-03T10:42:04;96724.59;;;3.25;63.05
44751;BME280;30477;48.224;11.470;2023-04-03T10:45:00;96728.97;;;3.23;62.54
44751;BME280;30477;48.224;11.470;2023-04-03T10:50:23;96732.59;;;3.35;62.06
44751;BME280;30477;48.224;11.470;2023-04-03T10:56:01;96732.97;;;3.45;61.47
44751;BME280;30477;48.224;11.470;2023-04-03T10:58:34;96730.09;;;3.51;61.34
44751;BME280;30477;48.224;11.470;2023-04-03T11:01:09;96733.09;;;3.42;60.46
44751;BME280;30477;48.224;11.470;2023-04-03T11:03:39;96722.53;;;3.32;59.89
44751;BME280;30477;48.224;11.470;2023-04-03T11:06:10;96722.31;;;3.37;59.89
44751;BME280;30477;48.224;11.470;2023-04-03T11:08:49;96726.44;;;3.39;59.93
44751;BME280;30477;48.224;11.470;2023-04-03T11:11:20;96724.47;;;3.44;59.39
44751;BME280;30477;48.224;11.470;2023-04-03T11:16:24;96726.69;;;3.51;59.25
44751;BME280;30477;48.224;11.470;2023-04-03T11:19:11;96717.44;;;3.48;58.75
44751;BME280;30477;48.224;11.470;2023-04-03T11:21:46;96720.19;;;3.45;58.79
44751;BME280;30477;48.224;11.470;2023-04-03T11:24:22;96719.75;;;3.37;58.32
44751;BME280;30477;48.224;11.470;2023-04-03T11:26:49;96716.25;;;3.38;57.82
44751;BME280;30477;48.224;11.470;2023-04-03T11:29:20;96714.03;;;3.32;58.29
44751;BME280;30477;48.224;11.470;2023-04-03T11:32:04;96716.25;;;3.38;58.25
44751;BME280;30477;48.224;11.470;2023-04-03T11:34:44;96715.19;;;3.42;57.88
44751;BME280;30477;48.224;11.470;2023-04-03T11:37:15;96710.25;;;3.39;56.95
44751;BME280;30477;48.224;11.470;2023-04-03T11:39:50;96712.31;;;3.48;56.78
44751;BME280;30477;48.224;11.470;2023-04-03T11:42:37;96707.56;;;3.58;56.08
44751;BME280;30477;48.224;11.470;2023-04-03T11:47:50;96709.38;;;3.56;53.47
44751;BME280;30477;48.224;11.470;2023-04-03T11:53:35;96693.53;;;3.81;53.89
44751;BME280;30477;48.224;11.470;2023-04-03T12:04:14;96690.41;;;4.22;52.56
44751;BME280;30477;48.224;11.470;2023-04-03T12:09:31;96684.88;;;4.30;52.45
44751;BME280;30477;48.224;11.470;2023-04-03T12:11:59;96680.69;;;4.43;52.45
44751;BME280;30477;48.224;11.470;2023-04-03T12:14:25;96681.22;;;4.50;52.51
44751;BME280;30477;48.224;11.470;2023-04-03T12:16:54;96678.84;;;4.61;52.07
44751;BME280;30477;48.224;11.470;2023-04-03T12:19:36;96680.19;;;4.52;50.56
44751;BME280;30477;48.224;11.470;2023-04-03T12:22:07;96676.19;;;4.62;51.05
44751;BME280;30477;48.224;11.470;2023-04-03T12:24:35;96666.53;;;4.82;51.43
44751;BME280;30477;48.224;11.470;2023-04-03T12:27:33;96671.72;;;4.80;50.66
44751;BME280;30477;48.224;11.470;2023-04-03T12:30:01;96678.50;;;4.67;50.45
44751;BME280;30477;48.224;11.470;2023-04-03T12:32:46;96671.41;;;4.56;50.11
44751;BME280;30477;48.224;11.470;2023-04-03T12:35:21;96661.97;;;4.57;50.35
44751;BME280;30477;48.224;11.470;2023-04-03T12:41:30;96653.88;;;4.93;50.73
44751;BME280;30477;48.224;11.470;2023-04-03T12:46:46;96651.03;;;5.26;52.08
44751;BME280;30477;48.224;11.470;2023-04-03T12:49:30;96648.94;;;5.33;51.98
44751;BME280;30477;48.224;11.470;2023-04-03T12:51:58;96642.16;;;5.18;51.46
44751;BME280;30477;48.224;11.470;2023-04-03T12:54:36;96646.84;;;5.11;51.41
44751;BME280;30477;48.224;11.470;2023-04-03T12:57:16;96646.09;;;4.95;49.94
44751;BME280;30477;48.224;11.470;2023-04-03T12:59:42;96645.34;;;4.78;48.61
44751;BME280;30477;48.224;11.470;2023-04-03T13:02:19;96641.81;;;4.81;48.67
44751;BME280;30477;48.224;11.470;2023-04-03T13:04:46;96639.13;;;4.82;48.76
44751;BME280;30477;48.224;11.470;2023-04-03T13:07:40;96645.63;;;4.88;48.16
44751;BME280;30477;48.224;11.470;2023-04-03T13:12:33;96633.09;;;5.12;47.57
44751;BME280;30477;48.224;11.470;2023-04-03T13:15:02;96635.75;;;5.25;48.58
44751;BME280;30477;48.224;11.470;2023-04-03T13:17:38;96640.16;;;5.23;47.50
44751;BME280;30477;48.224;11.470;2023-04-03T13:23:01;96637.16;;;5.02;48.57
44751;BME280;30477;48.224;11.470;2023-04-03T13:25:30;96644.72;;;4.89;48.72
44751;BME280;30477;48.224;11.470;2023-04-03T13:27:58;96638.50;;;4.79;49.31
44751;BME280;30477;48.224;11.470;2023-04-03T13:30:36;96642.91;;;4.77;48.93
44751;BME280;30477;48.224;11.470;2023-04-03T13:33:05;96640.22;;;4.78;48.93
44751;BME280;30477;48.224;11.470;2023-04-03T13:35:39;96647.19;;;4.76;48.38
44751;BME280;30477;48.224;11.470;2023-04-03T13:38:28;96644.63;;;4.91;49.18
44751;BME280;30477;48.224;11.470;2023-04-03T13:40:58;96636.19;;;4.88;49.32
44751;BME280;30477;48.224;11.470;2023-04-03T13:43:30;96639.84;;;4.84;49.03
44751;BME280;30477;48.224;11.470;2023-04-03T13:48:47;96637.41;;;5.12;49.24
44751;BME280;30477;48.224;11.470;2023-04-03T13:54:01;96632.72;;;5.18;47.48
44751;BME280;30477;48.224;11.470;2023-04-03T13:56:39;96633.19;;;5.11;45.94
44751;BME280;30477;48.224;11.470;2023-04-03T14:04:23;96624.84;;;5.07;44.53
44751;BME280;30477;48.224;11.470;2023-04-03T14:06:51;96624.41;;;5.00;44.52
44751;BME280;30477;48.224;11.470;2023-04-03T14:09:18;96628.72;;;5.00;44.80
44751;BME280;30477;48.224;11.470;2023-04-03T14:11:44;96619.56;;;4.96;44.84
44751;BME280;30477;48.224;11.470;2023-04-03T14:14:37;96619.72;;;5.07;44.07
44751;BME280;30477;48.224;11.470;2023-04-03T14:17:25;96612.75;;;5.09;43.57
44751;BME280;30477;48.224;11.470;2023-04-03T14:19:52;96612.09;;;5.34;44.91
44751;BME280;30477;48.224;11.470;2023-04-03T14:22:24;96616.09;;;5.53;45.26
44751;BME280;30477;48.224;11.470;2023-04-03T14:24:50;96609.22;;;5.53;45.88
44751;BME280;30477;48.224;11.470;2023-04-03T14:29:46;96600.94;;;5.48;45.20
44751;BME280;30477;48.224;11.470;2023-04-03T14:32:13;96609.44;;;5.36;45.27